createdAt,value
2022-09-15T00:00:40.046Z,90.08
2022-09-15T00:01:40.139Z,90.07
2022-09-15T00:02:40.106Z,90.11
2022-09-15T00:03:40.058Z,90.05
2022-09-15T00:04:40.024Z,90.17
2022-09-15T00:05:39.992Z,90.25
2022-09-15T00:06:40.009Z,90.25
2022-09-15T00:07:39.965Z,90.20
2022-09-15T00:08:39.961Z,90.23
2022-09-15T00:09:39.971Z,90.33
2022-09-15T00:10:39.969Z,90.30
2022-09-15T00:11:39.933Z,90.16
2022-09-15T00:12:39.915Z,90.18
2022-09-15T00:13:39.901Z,90.31
2022-09-15T00:14:39.922Z,90.32
2022-09-15T00:15:39.883Z,90.31
2022-09-15T00:16:39.966Z,90.21
2022-09-15T00:17:39.850Z,90.11
2022-09-15T00:18:39.845Z,90.12
2022-09-15T00:19:39.820Z,90.16
2022-09-15T00:20:39.839Z,90.24
2022-09-15T00:21:39.814Z,90.31
2022-09-15T00:22:39.798Z,90.29
2022-09-15T00:23:39.781Z,90.32
2022-09-15T00:24:39.761Z,90.08
2022-09-15T00:25:39.779Z,89.93
2022-09-15T00:26:39.749Z,89.94
2022-09-15T00:27:39.777Z,90.08
2022-09-15T00:28:39.719Z,90.11
2022-09-15T00:29:39.712Z,90.10
2022-09-15T00:30:39.757Z,89.98
2022-09-15T00:31:39.692Z,89.85
2022-09-15T00:32:39.678Z,89.73
2022-09-15T00:33:39.671Z,89.77
2022-09-15T00:34:39.649Z,89.63
2022-09-15T00:35:39.642Z,89.60
2022-09-15T00:36:39.643Z,89.61
2022-09-15T00:37:39.608Z,89.55
2022-09-15T00:38:39.606Z,89.68
2022-09-15T00:39:39.598Z,89.75
2022-09-15T00:40:39.582Z,89.75
2022-09-15T00:41:39.590Z,89.68
2022-09-15T00:42:39.583Z,89.66
2022-09-15T00:43:39.570Z,89.78
2022-09-15T00:44:39.548Z,89.94
2022-09-15T00:45:39.619Z,90.00
2022-09-15T00:46:39.556Z,90.02
2022-09-15T00:47:39.504Z,89.88
2022-09-15T00:48:39.492Z,89.81
2022-09-15T00:49:39.481Z,89.89
2022-09-15T00:50:39.472Z,89.90
2022-09-15T00:51:39.477Z,89.91
2022-09-15T00:52:39.452Z,89.86
2022-09-15T00:53:39.443Z,89.78
2022-09-15T00:54:39.423Z,89.71
2022-09-15T00:55:39.422Z,89.66
2022-09-15T00:56:39.405Z,89.63
2022-09-15T00:57:39.404Z,89.55
2022-09-15T00:58:39.374Z,89.51
2022-09-15T00:59:39.367Z,89.77
2022-09-15T01:00:39.355Z,89.73
2022-09-15T01:01:39.408Z,89.61
2022-09-15T01:02:39.402Z,89.67
2022-09-15T01:03:39.324Z,89.74
2022-09-15T01:04:39.301Z,89.84
2022-09-15T01:05:39.295Z,89.75
2022-09-15T01:06:39.309Z,89.66
2022-09-15T01:07:39.278Z,89.69
2022-09-15T01:08:39.279Z,89.64
2022-09-15T01:09:39.277Z,89.70
2022-09-15T01:10:39.263Z,89.84
2022-09-15T01:11:39.231Z,89.90
2022-09-15T01:12:39.215Z,89.83
2022-09-15T01:13:39.218Z,89.81
2022-09-15T01:14:39.206Z,89.74
2022-09-15T01:15:39.187Z,89.67
2022-09-15T01:16:39.226Z,89.55
2022-09-15T01:17:39.164Z,89.45
2022-09-15T01:18:39.152Z,89.32
2022-09-15T01:19:39.183Z,89.29
2022-09-15T01:20:39.123Z,89.28
2022-09-15T01:21:39.116Z,89.30
2022-09-15T01:22:39.114Z,89.06
2022-09-15T01:23:39.098Z,89.11
2022-09-15T01:24:39.090Z,89.11
2022-09-15T01:25:39.082Z,89.18
2022-09-15T01:26:39.048Z,89.27
2022-09-15T01:27:42.674Z,89.20
2022-09-15T01:28:39.047Z,89.03
2022-09-15T01:29:39.043Z,88.77
2022-09-15T01:30:39.008Z,88.73
2022-09-15T01:31:39.042Z,88.70
2022-09-15T01:32:38.989Z,88.75
2022-09-15T01:33:38.980Z,88.78
2022-09-15T01:34:38.981Z,88.82
2022-09-15T01:35:38.962Z,88.55
2022-09-15T01:36:38.941Z,88.48
2022-09-15T01:37:38.933Z,88.51
2022-09-15T01:38:38.919Z,88.52
2022-09-15T01:39:38.912Z,88.43
2022-09-15T01:40:38.908Z,88.34
2022-09-15T01:41:38.882Z,88.51
2022-09-15T01:42:38.879Z,88.68
2022-09-15T01:43:38.862Z,88.61
2022-09-15T01:44:38.851Z,88.66
2022-09-15T01:45:38.905Z,88.77
2022-09-15T01:46:38.833Z,88.91
2022-09-15T01:47:38.813Z,88.80
2022-09-15T01:48:38.802Z,88.81
2022-09-15T01:49:38.803Z,88.65
2022-09-15T01:50:38.804Z,88.59
2022-09-15T01:51:38.761Z,88.52
2022-09-15T01:52:38.767Z,88.52
2022-09-15T01:53:38.744Z,88.49
2022-09-15T01:54:38.731Z,88.35
2022-09-15T01:55:38.737Z,88.30
2022-09-15T01:56:38.741Z,88.41
2022-09-15T01:57:38.710Z,88.41
2022-09-15T01:58:38.693Z,88.20
2022-09-15T01:59:38.682Z,88.09
2022-09-15T02:00:38.664Z,88.08
2022-09-15T02:01:38.825Z,88.16
2022-09-15T02:02:38.709Z,88.29
2022-09-15T02:03:38.637Z,88.04
2022-09-15T02:04:38.619Z,87.75
2022-09-15T02:05:38.623Z,87.70
2022-09-15T02:06:38.616Z,87.79
2022-09-15T02:07:38.593Z,87.89
2022-09-15T02:08:38.574Z,87.99
2022-09-15T02:09:38.566Z,87.96
2022-09-15T02:10:38.546Z,87.81
2022-09-15T02:11:38.546Z,87.89
2022-09-15T02:12:38.544Z,88.07
2022-09-15T02:13:38.524Z,88.32
2022-09-15T02:14:38.504Z,87.88
2022-09-15T02:15:38.497Z,87.77
2022-09-15T02:16:38.544Z,87.76
2022-09-15T02:17:38.484Z,87.97
2022-09-15T02:18:38.457Z,87.97
2022-09-15T02:19:38.481Z,87.96
2022-09-15T02:20:38.457Z,88.09
2022-09-15T02:21:38.429Z,88.10
2022-09-15T02:22:38.421Z,88.38
2022-09-15T02:23:38.417Z,88.33
2022-09-15T02:24:38.387Z,88.29
2022-09-15T02:25:38.375Z,88.34
2022-09-15T02:26:38.377Z,88.40
2022-09-15T02:27:38.357Z,88.66
2022-09-15T02:28:38.359Z,88.78
2022-09-15T02:29:38.327Z,88.63
2022-09-15T02:30:38.319Z,88.56
2022-09-15T02:31:38.369Z,88.69
2022-09-15T02:32:38.295Z,88.85
2022-09-15T02:33:38.309Z,88.89
2022-09-15T02:34:38.279Z,89.01
2022-09-15T02:35:38.268Z,88.92
2022-09-15T02:36:38.373Z,88.96
2022-09-15T02:37:38.247Z,89.02
2022-09-15T02:38:38.254Z,89.12
2022-09-15T02:39:38.217Z,89.21
2022-09-15T02:40:38.213Z,89.41
2022-09-15T02:41:38.203Z,89.31
2022-09-15T02:42:38.180Z,89.27
2022-09-15T02:43:38.188Z,89.30
2022-09-15T02:44:38.162Z,89.26
2022-09-15T02:45:38.189Z,89.11
2022-09-15T02:46:38.132Z,89.07
2022-09-15T02:47:38.126Z,88.98
2022-09-15T02:48:38.150Z,88.97
2022-09-15T02:49:38.115Z,88.93
2022-09-15T02:50:38.093Z,88.94
2022-09-15T02:51:38.090Z,88.95
2022-09-15T02:52:38.069Z,89.04
2022-09-15T02:53:38.050Z,88.85
2022-09-15T02:54:38.051Z,88.54
2022-09-15T02:55:38.036Z,88.61
2022-09-15T02:56:38.021Z,88.88
2022-09-15T02:57:38.017Z,88.80
2022-09-15T02:58:37.996Z,88.96
2022-09-15T02:59:38.010Z,88.83
2022-09-15T03:00:38.028Z,88.46
2022-09-15T03:01:38.020Z,88.17
2022-09-15T03:02:37.951Z,88.25
2022-09-15T03:03:42.308Z,88.38
2022-09-15T03:04:38.945Z,88.41
2022-09-15T03:05:37.929Z,88.55
2022-09-15T03:06:37.904Z,88.86
2022-09-15T03:07:37.904Z,88.81
2022-09-15T03:08:37.886Z,88.47
2022-09-15T03:09:37.877Z,88.49
2022-09-15T03:10:37.876Z,88.52
2022-09-15T03:11:37.853Z,88.49
2022-09-15T03:12:37.844Z,88.57
2022-09-15T03:13:37.831Z,88.50
2022-09-15T03:14:37.813Z,88.58
2022-09-15T03:15:37.816Z,88.55
2022-09-15T03:16:37.846Z,88.47
2022-09-15T03:17:37.794Z,88.58
2022-09-15T03:18:37.770Z,88.52
2022-09-15T03:19:37.763Z,88.58
2022-09-15T03:20:37.753Z,88.49
2022-09-15T03:21:37.733Z,88.47
2022-09-15T03:22:37.733Z,88.49
2022-09-15T03:23:37.720Z,88.50
2022-09-15T03:24:37.722Z,88.53
2022-09-15T03:25:37.688Z,88.64
2022-09-15T03:26:37.684Z,88.68
2022-09-15T03:27:37.683Z,88.82
2022-09-15T03:28:37.651Z,88.74
2022-09-15T03:29:37.644Z,88.66
2022-09-15T03:30:37.624Z,88.64
2022-09-15T03:31:37.705Z,88.63
2022-09-15T03:32:37.605Z,88.58
2022-09-15T03:33:37.600Z,88.67
2022-09-15T03:34:37.582Z,88.74
2022-09-15T03:35:37.585Z,88.76
2022-09-15T03:36:37.557Z,88.88
2022-09-15T03:37:37.583Z,88.82
2022-09-15T03:38:37.549Z,88.80
2022-09-15T03:39:37.536Z,88.82
2022-09-15T03:40:37.514Z,88.67
2022-09-15T03:41:37.542Z,88.68
2022-09-15T03:42:37.508Z,88.71
2022-09-15T03:43:37.484Z,88.66
2022-09-15T03:44:37.470Z,88.64
2022-09-15T03:45:37.529Z,88.54
2022-09-15T03:46:37.449Z,88.36
2022-09-15T03:47:37.454Z,88.27
2022-09-15T03:48:37.418Z,88.18
2022-09-15T03:49:37.411Z,88.26
2022-09-15T03:50:37.417Z,88.35
2022-09-15T03:51:37.392Z,88.37
2022-09-15T03:52:37.393Z,88.46
2022-09-15T03:53:37.360Z,88.63
2022-09-15T03:54:37.359Z,88.49
2022-09-15T03:55:37.351Z,88.64
2022-09-15T03:56:37.334Z,88.69
2022-09-15T03:57:37.319Z,88.82
2022-09-15T03:58:37.326Z,88.81
2022-09-15T03:59:37.289Z,88.93
2022-09-15T04:00:37.354Z,88.93
2022-09-15T04:01:37.289Z,88.63
2022-09-15T04:02:37.268Z,88.56
2022-09-15T04:03:43.289Z,88.66
2022-09-15T04:04:38.231Z,88.76
2022-09-15T04:05:37.224Z,88.76
2022-09-15T04:06:37.223Z,88.76
2022-09-15T04:07:37.210Z,88.98
2022-09-15T04:08:37.210Z,88.74
2022-09-15T04:09:37.201Z,88.79
2022-09-15T04:10:37.190Z,88.55
2022-09-15T04:11:37.162Z,88.69
2022-09-15T04:12:37.142Z,88.47
2022-09-15T04:13:37.143Z,88.61
2022-09-15T04:14:37.142Z,88.70
2022-09-15T04:15:37.108Z,88.91
2022-09-15T04:16:37.156Z,89.00
2022-09-15T04:17:37.092Z,89.18
2022-09-15T04:18:37.074Z,89.07
2022-09-15T04:19:37.087Z,89.22
2022-09-15T04:20:37.054Z,89.34
2022-09-15T04:21:37.042Z,89.40
2022-09-15T04:22:37.093Z,89.41
2022-09-15T04:23:37.013Z,89.34
2022-09-15T04:24:37.029Z,89.30
2022-09-15T04:25:36.995Z,89.23
2022-09-15T04:26:37.035Z,89.28
2022-09-15T04:27:36.998Z,89.23
2022-09-15T04:28:36.963Z,89.25
2022-09-15T04:29:36.973Z,89.21
2022-09-15T04:30:36.945Z,89.13
2022-09-15T04:31:37.086Z,89.11
2022-09-15T04:32:36.974Z,89.11
2022-09-15T04:33:36.911Z,89.20
2022-09-15T04:34:41.111Z,89.20
2022-09-15T04:35:36.881Z,89.24
2022-09-15T04:36:36.865Z,89.20
2022-09-15T04:37:36.865Z,89.13
2022-09-15T04:38:36.852Z,89.07
2022-09-15T04:39:36.854Z,88.95
2022-09-15T04:40:36.825Z,88.98
2022-09-15T04:41:36.815Z,89.11
2022-09-15T04:42:36.909Z,89.14
2022-09-15T04:43:36.795Z,89.20
2022-09-15T04:44:36.795Z,89.32
2022-09-15T04:45:36.765Z,89.27
2022-09-15T04:46:36.818Z,89.36
2022-09-15T04:47:36.747Z,89.37
2022-09-15T04:48:36.730Z,89.48
2022-09-15T04:49:36.718Z,89.36
2022-09-15T04:50:36.732Z,89.34
2022-09-15T04:51:36.696Z,89.33
2022-09-15T04:52:36.698Z,89.28
2022-09-15T04:53:36.686Z,89.28
2022-09-15T04:54:36.667Z,89.35
2022-09-15T04:55:36.655Z,89.35
2022-09-15T04:56:36.661Z,89.36
2022-09-15T04:57:36.626Z,89.34
2022-09-15T04:58:36.631Z,89.24
2022-09-15T04:59:36.629Z,89.23
2022-09-15T05:00:36.639Z,89.19
2022-09-15T05:01:36.679Z,89.15
2022-09-15T05:02:36.570Z,89.20
2022-09-15T05:03:36.565Z,89.27
2022-09-15T05:04:36.553Z,89.28
2022-09-15T05:05:36.541Z,89.30
2022-09-15T05:06:36.574Z,89.18
2022-09-15T05:07:36.508Z,89.28
2022-09-15T05:08:36.508Z,89.25
2022-09-15T05:09:36.495Z,89.20
2022-09-15T05:10:36.483Z,89.25
2022-09-15T05:11:36.493Z,89.24
2022-09-15T05:12:36.449Z,89.23
2022-09-15T05:13:36.457Z,89.30
2022-09-15T05:14:36.439Z,89.25
2022-09-15T05:15:36.423Z,89.15
2022-09-15T05:16:36.491Z,89.18
2022-09-15T05:17:36.407Z,89.15
2022-09-15T05:18:36.398Z,89.08
2022-09-15T05:19:36.369Z,89.05
2022-09-15T05:20:36.359Z,89.04
2022-09-15T05:21:36.372Z,89.05
2022-09-15T05:22:40.921Z,89.00
2022-09-15T05:23:37.330Z,88.80
2022-09-15T05:24:36.323Z,88.93
2022-09-15T05:25:36.310Z,89.03
2022-09-15T05:26:36.299Z,89.02
2022-09-15T05:27:36.299Z,89.08
2022-09-15T05:28:36.273Z,89.16
2022-09-15T05:29:36.275Z,89.34
2022-09-15T05:30:39.585Z,89.41
2022-09-15T05:31:37.307Z,89.49
2022-09-15T05:32:36.244Z,89.51
2022-09-15T05:33:36.231Z,89.53
2022-09-15T05:34:36.220Z,89.59
2022-09-15T05:35:36.195Z,89.67
2022-09-15T05:36:36.180Z,89.79
2022-09-15T05:37:36.164Z,89.83
2022-09-15T05:38:36.162Z,89.86
2022-09-15T05:39:36.139Z,89.86
2022-09-15T05:40:36.205Z,89.95
2022-09-15T05:41:36.116Z,89.92
2022-09-15T05:42:36.111Z,89.84
2022-09-15T05:43:36.120Z,89.78
2022-09-15T05:44:36.085Z,89.76
2022-09-15T05:45:36.108Z,89.66
2022-09-15T05:46:36.113Z,89.62
2022-09-15T05:47:36.055Z,89.85
2022-09-15T05:48:36.039Z,89.83
2022-09-15T05:49:36.056Z,89.72
2022-09-15T05:50:36.024Z,89.73
2022-09-15T05:51:36.013Z,89.67
2022-09-15T05:52:36.011Z,89.60
2022-09-15T05:53:35.981Z,89.55
2022-09-15T05:54:36.289Z,89.35
2022-09-15T05:55:35.957Z,89.39
2022-09-15T05:56:35.945Z,89.42
2022-09-15T05:57:35.944Z,89.40
2022-09-15T05:58:35.931Z,89.35
2022-09-15T05:59:35.915Z,89.56
2022-09-15T06:00:35.931Z,89.49
2022-09-15T06:01:35.947Z,89.40
2022-09-15T06:02:35.963Z,89.30
2022-09-15T06:03:35.873Z,89.28
2022-09-15T06:04:35.869Z,89.33
2022-09-15T06:05:35.850Z,89.35
2022-09-15T06:06:35.863Z,89.48
2022-09-15T06:07:35.826Z,89.35
2022-09-15T06:08:35.838Z,89.36
2022-09-15T06:09:35.806Z,89.44
2022-09-15T06:10:35.788Z,89.29
2022-09-15T06:11:35.792Z,89.27
2022-09-15T06:12:35.768Z,89.23
2022-09-15T06:13:35.760Z,89.23
2022-09-15T06:14:35.751Z,89.14
2022-09-15T06:15:35.730Z,89.11
2022-09-15T06:16:35.828Z,89.12
2022-09-15T06:17:35.698Z,89.05
2022-09-15T06:18:35.706Z,89.20
2022-09-15T06:19:35.698Z,89.21
2022-09-15T06:20:35.673Z,89.11
2022-09-15T06:21:35.697Z,89.08
2022-09-15T06:22:35.650Z,88.84
2022-09-15T06:23:35.630Z,88.67
2022-09-15T06:24:35.637Z,88.84
2022-09-15T06:25:35.615Z,88.85
2022-09-15T06:26:35.640Z,88.74
2022-09-15T06:27:35.592Z,88.59
2022-09-15T06:28:35.608Z,88.62
2022-09-15T06:29:35.586Z,88.67
2022-09-15T06:30:35.574Z,88.48
2022-09-15T06:31:35.639Z,88.63
2022-09-15T06:32:35.549Z,88.79
2022-09-15T06:33:35.530Z,88.96
2022-09-15T06:34:35.527Z,88.89
2022-09-15T06:35:35.510Z,88.88
2022-09-15T06:36:35.515Z,88.83
2022-09-15T06:37:35.496Z,88.79
2022-09-15T06:38:35.482Z,88.63
2022-09-15T06:39:35.464Z,88.51
2022-09-15T06:40:35.517Z,88.40
2022-09-15T06:42:00.717Z,88.29
2022-09-15T06:42:36.422Z,88.38
2022-09-15T06:43:35.413Z,88.38
2022-09-15T06:44:35.411Z,87.79
2022-09-15T06:45:35.385Z,88.02
2022-09-15T06:46:35.443Z,87.82
2022-09-15T06:47:35.393Z,87.60
2022-09-15T06:48:35.353Z,87.55
2022-09-15T06:49:35.347Z,87.66
2022-09-15T06:50:35.338Z,87.77
2022-09-15T06:51:35.341Z,87.84
2022-09-15T06:52:35.317Z,87.47
2022-09-15T06:53:35.352Z,87.47
2022-09-15T06:54:35.343Z,87.05
2022-09-15T06:55:35.320Z,87.04
2022-09-15T06:56:38.070Z,87.10
2022-09-15T06:57:35.265Z,86.99
2022-09-15T06:58:35.244Z,86.77
2022-09-15T06:59:35.234Z,86.91
2022-09-15T07:00:35.222Z,87.04
2022-09-15T07:01:35.214Z,87.14
2022-09-15T07:02:35.293Z,86.92
2022-09-15T07:03:35.306Z,86.77
2022-09-15T07:04:35.190Z,86.68
2022-09-15T07:05:35.174Z,86.67
2022-09-15T07:06:35.155Z,86.58
2022-09-15T07:07:35.137Z,86.67
2022-09-15T07:08:35.157Z,86.52
2022-09-15T07:09:35.549Z,86.47
2022-09-15T07:10:35.110Z,86.01
2022-09-15T07:11:35.126Z,86.04
2022-09-15T07:12:35.098Z,86.74
2022-09-15T07:13:35.070Z,87.13
2022-09-15T07:14:35.094Z,87.00
2022-09-15T07:15:35.066Z,86.82
2022-09-15T07:16:35.090Z,86.74
2022-09-15T07:17:35.027Z,86.55
2022-09-15T07:18:37.586Z,86.83
2022-09-15T07:19:35.020Z,86.80
2022-09-15T07:20:34.998Z,86.58
2022-09-15T07:21:34.993Z,86.57
2022-09-15T07:22:34.981Z,86.95
2022-09-15T07:23:34.964Z,86.96
2022-09-15T07:24:34.986Z,86.26
2022-09-15T07:25:34.942Z,86.07
2022-09-15T07:26:34.943Z,86.31
2022-09-15T07:27:34.909Z,86.48
2022-09-15T07:28:34.909Z,87.14
2022-09-15T07:29:37.812Z,87.07
2022-09-15T07:30:34.879Z,87.00
2022-09-15T07:31:34.889Z,86.88
2022-09-15T07:32:34.860Z,87.00
2022-09-15T07:33:34.852Z,86.72
2022-09-15T07:34:34.839Z,86.74
2022-09-15T07:35:34.876Z,86.82
2022-09-15T07:36:34.811Z,86.57
2022-09-15T07:37:34.802Z,86.59
2022-09-15T07:38:34.810Z,86.60
2022-09-15T07:39:34.806Z,86.66
2022-09-15T07:40:34.819Z,86.24
2022-09-15T07:41:34.792Z,86.45
2022-09-15T07:42:35.506Z,86.08
2022-09-15T07:43:34.734Z,85.82
2022-09-15T07:44:34.722Z,86.60
2022-09-15T07:45:34.803Z,86.80
2022-09-15T07:46:34.714Z,86.66
2022-09-15T07:47:34.681Z,86.53
2022-09-15T07:48:34.671Z,86.34
2022-09-15T07:49:34.663Z,85.97
2022-09-15T07:50:34.659Z,85.99
2022-09-15T07:51:34.658Z,85.19
2022-09-15T07:52:34.637Z,84.44
2022-09-15T07:53:34.613Z,84.79
2022-09-15T07:54:34.613Z,85.17
2022-09-15T07:55:34.602Z,85.15
2022-09-15T07:56:34.614Z,85.08
2022-09-15T07:57:34.575Z,85.07
2022-09-15T07:58:34.568Z,85.14
2022-09-15T07:59:38.213Z,85.27
2022-09-15T08:00:35.580Z,85.38
2022-09-15T08:01:34.565Z,85.15
2022-09-15T08:02:34.548Z,85.03
2022-09-15T08:03:34.511Z,85.07
2022-09-15T08:04:34.511Z,84.87
2022-09-15T08:05:38.694Z,85.02
2022-09-15T08:06:35.495Z,85.18
2022-09-15T08:07:34.464Z,85.32
2022-09-15T08:08:34.468Z,85.66
2022-09-15T08:09:34.436Z,85.58
2022-09-15T08:10:34.435Z,85.77
2022-09-15T08:11:34.425Z,85.93
2022-09-15T08:12:34.404Z,85.97
2022-09-15T08:13:34.408Z,85.91
2022-09-15T08:14:34.383Z,85.99
2022-09-15T08:15:34.369Z,85.87
2022-09-15T08:16:34.438Z,85.99
2022-09-15T08:17:34.357Z,85.89
2022-09-15T08:18:34.357Z,85.79
2022-09-15T08:19:34.330Z,85.69
2022-09-15T08:20:34.310Z,85.71
2022-09-15T08:21:34.318Z,85.61
2022-09-15T08:22:34.290Z,85.64
2022-09-15T08:23:34.279Z,85.88
2022-09-15T08:24:34.285Z,85.93
2022-09-15T08:25:34.263Z,85.95
2022-09-15T08:26:34.278Z,86.11
2022-09-15T08:27:34.227Z,85.92
2022-09-15T08:28:34.222Z,85.79
2022-09-15T08:29:34.225Z,85.87
2022-09-15T08:30:34.204Z,85.95
2022-09-15T08:31:34.274Z,85.90
2022-09-15T08:32:34.178Z,85.79
2022-09-15T08:33:34.161Z,85.95
2022-09-15T08:34:34.179Z,86.22
2022-09-15T08:35:34.142Z,86.02
2022-09-15T08:36:34.132Z,86.12
2022-09-15T08:37:34.119Z,86.23
2022-09-15T08:38:34.112Z,86.15
2022-09-15T08:39:34.094Z,86.17
2022-09-15T08:40:34.151Z,85.95
2022-09-15T08:41:34.099Z,85.92
2022-09-15T08:42:34.052Z,85.88
2022-09-15T08:43:34.050Z,85.70
2022-09-15T08:44:34.041Z,85.37
2022-09-15T08:45:34.054Z,84.51
2022-09-15T08:46:34.052Z,84.27
2022-09-15T08:47:34.012Z,83.86
2022-09-15T08:48:33.989Z,83.71
2022-09-15T08:49:50.476Z,83.36
2022-09-15T08:50:34.983Z,83.14
2022-09-15T08:51:33.951Z,82.73
2022-09-15T08:52:33.949Z,82.73
2022-09-15T08:53:33.936Z,82.43
2022-09-15T08:54:33.933Z,83.23
2022-09-15T08:55:33.932Z,82.70
2022-09-15T08:56:33.899Z,82.06
2022-09-15T08:57:33.891Z,81.89
2022-09-15T08:58:33.872Z,81.95
2022-09-15T08:59:33.873Z,82.01
2022-09-15T09:00:33.854Z,80.50
2022-09-15T09:01:33.971Z,80.16
2022-09-15T09:02:33.910Z,80.03
2022-09-15T09:03:33.822Z,80.00
2022-09-15T09:04:33.808Z,81.30
2022-09-15T09:05:33.788Z,81.27
2022-09-15T09:06:33.799Z,80.75
2022-09-15T09:07:33.780Z,80.67
2022-09-15T09:08:33.754Z,81.40
2022-09-15T09:09:33.752Z,80.44
2022-09-15T09:10:33.735Z,81.08
2022-09-15T09:11:33.736Z,80.63
2022-09-15T09:12:33.727Z,79.76
2022-09-15T09:13:35.732Z,79.42
2022-09-15T09:14:33.697Z,79.57
2022-09-15T09:15:33.705Z,80.27
2022-09-15T09:16:33.686Z,80.05
2022-09-15T09:17:33.687Z,79.65
2022-09-15T09:18:33.654Z,79.16
2022-09-15T09:19:33.647Z,79.11
2022-09-15T09:20:33.623Z,78.68
2022-09-15T09:21:33.652Z,78.74
2022-09-15T09:22:33.655Z,79.45
2022-09-15T09:23:33.603Z,80.13
2022-09-15T09:24:33.606Z,80.42
2022-09-15T09:25:33.588Z,79.64
2022-09-15T09:26:33.551Z,79.51
2022-09-15T09:27:33.557Z,79.48
2022-09-15T09:28:33.530Z,79.90
2022-09-15T09:29:33.523Z,79.50
2022-09-15T09:30:33.511Z,79.29
2022-09-15T09:31:33.498Z,78.91
2022-09-15T09:32:33.510Z,78.13
2022-09-15T09:33:33.474Z,78.50
2022-09-15T09:34:33.472Z,77.55
2022-09-15T09:35:33.465Z,77.66
2022-09-15T09:36:33.439Z,78.63
2022-09-15T09:37:33.475Z,78.24
2022-09-15T09:38:33.417Z,79.23
2022-09-15T09:39:33.406Z,77.22
2022-09-15T09:40:33.480Z,78.91
2022-09-15T09:41:33.383Z,78.70
2022-09-15T09:42:33.371Z,78.40
2022-09-15T09:43:33.391Z,78.57
2022-09-15T09:44:33.409Z,79.53
2022-09-15T09:45:33.341Z,78.79
2022-09-15T09:46:33.376Z,78.83
2022-09-15T09:47:33.325Z,78.46
2022-09-15T09:48:33.317Z,78.73
2022-09-15T09:49:33.302Z,77.80
2022-09-15T09:50:33.283Z,78.57
2022-09-15T09:51:33.272Z,78.94
2022-09-15T09:52:33.268Z,79.20
2022-09-15T09:53:33.278Z,79.61
2022-09-15T09:54:33.234Z,79.50
2022-09-15T09:55:33.223Z,80.03
2022-09-15T09:56:33.214Z,79.37
2022-09-15T09:57:33.207Z,79.28
2022-09-15T09:58:33.217Z,79.28
2022-09-15T09:59:33.190Z,79.59
2022-09-15T10:00:33.172Z,79.17
2022-09-15T10:01:33.226Z,78.30
2022-09-15T10:02:33.149Z,79.37
2022-09-15T10:03:33.196Z,78.00
2022-09-15T10:04:33.155Z,78.63
2022-09-15T10:05:33.149Z,79.15
2022-09-15T10:06:33.103Z,79.24
2022-09-15T10:07:33.093Z,78.55
2022-09-15T10:08:33.085Z,77.51
2022-09-15T10:09:33.569Z,77.19
2022-09-15T10:10:33.058Z,77.76
2022-09-15T10:11:33.055Z,76.99
2022-09-15T10:12:33.034Z,76.99
2022-09-15T10:13:33.074Z,76.83
2022-09-15T10:14:33.005Z,77.31
2022-09-15T10:15:32.997Z,77.88
2022-09-15T10:16:33.043Z,78.24
2022-09-15T10:17:32.977Z,78.18
2022-09-15T10:18:32.958Z,77.49
2022-09-15T10:19:32.963Z,77.53
2022-09-15T10:20:33.051Z,76.92
2022-09-15T10:21:32.928Z,77.98
2022-09-15T10:22:32.919Z,78.18
2022-09-15T10:23:32.937Z,77.33
2022-09-15T10:24:32.916Z,77.22
2022-09-15T10:25:55.111Z,77.90
2022-09-15T10:26:33.876Z,76.69
2022-09-15T10:27:32.867Z,76.90
2022-09-15T10:28:32.860Z,77.42
2022-09-15T10:29:32.878Z,77.80
2022-09-15T10:30:32.830Z,76.94
2022-09-15T10:31:32.869Z,77.32
2022-09-15T10:32:32.803Z,75.95
2022-09-15T10:33:32.794Z,76.24
2022-09-15T10:34:32.808Z,76.92
2022-09-15T10:35:32.775Z,77.28
2022-09-15T10:36:32.778Z,77.09
2022-09-15T10:37:32.759Z,76.47
2022-09-15T10:38:32.756Z,77.38
2022-09-15T10:39:32.771Z,77.60
2022-09-15T10:40:32.781Z,77.47
2022-09-15T10:41:32.711Z,77.28
2022-09-15T10:42:32.708Z,76.62
2022-09-15T10:43:32.702Z,76.88
2022-09-15T10:44:32.672Z,76.38
2022-09-15T10:45:32.740Z,76.32
2022-09-15T10:46:35.437Z,76.85
2022-09-15T10:47:33.640Z,76.62
2022-09-15T10:48:32.639Z,76.81
2022-09-15T10:49:32.603Z,77.19
2022-09-15T10:50:32.608Z,77.64
2022-09-15T10:51:32.591Z,78.40
2022-09-15T10:52:32.575Z,77.62
2022-09-15T10:53:32.591Z,77.76
2022-09-15T10:54:32.559Z,77.94
2022-09-15T10:55:51.592Z,77.29
2022-09-15T10:56:33.550Z,77.12
2022-09-15T10:57:32.541Z,77.09
2022-09-15T10:58:32.534Z,77.59
2022-09-15T10:59:32.529Z,76.89
2022-09-15T11:00:32.537Z,75.09
2022-09-15T11:01:32.496Z,75.05
2022-09-15T11:02:32.546Z,75.37
2022-09-15T11:03:32.459Z,75.22
2022-09-15T11:04:32.439Z,74.87
2022-09-15T11:05:32.437Z,75.11
2022-09-15T11:06:32.439Z,75.10
2022-09-15T11:07:32.433Z,73.29
2022-09-15T11:08:32.394Z,74.01
2022-09-15T11:09:32.383Z,73.14
2022-09-15T11:10:32.378Z,73.07
2022-09-15T11:11:32.374Z,72.95
2022-09-15T11:12:32.375Z,73.12
2022-09-15T11:13:32.343Z,72.60
2022-09-15T11:14:32.326Z,71.80
2022-09-15T11:15:32.322Z,72.75
2022-09-15T11:16:32.358Z,74.13
2022-09-15T11:17:32.316Z,73.84
2022-09-15T11:18:32.286Z,72.80
2022-09-15T11:19:32.281Z,73.65
2022-09-15T11:20:32.256Z,72.24
2022-09-15T11:21:32.247Z,71.99
2022-09-15T11:22:32.249Z,72.12
2022-09-15T11:23:32.240Z,72.00
2022-09-15T11:24:32.209Z,70.90
2022-09-15T11:25:32.209Z,69.81
2022-09-15T11:26:32.184Z,69.47
2022-09-15T11:27:32.180Z,69.08
2022-09-15T11:28:32.183Z,68.43
2022-09-15T11:29:32.165Z,67.61
2022-09-15T11:30:32.149Z,66.92
2022-09-15T11:31:32.355Z,68.30
2022-09-15T11:32:32.139Z,68.38
2022-09-15T11:33:32.117Z,68.31
2022-09-15T11:34:32.107Z,68.41
2022-09-15T11:35:32.090Z,67.14
2022-09-15T11:36:32.081Z,67.47
2022-09-15T11:37:32.061Z,68.05
2022-09-15T11:38:32.074Z,68.18
2022-09-15T11:39:32.047Z,67.28
2022-09-15T11:40:32.072Z,65.13
2022-09-15T11:41:32.021Z,65.27
2022-09-15T11:42:32.001Z,65.83
2022-09-15T11:43:32.011Z,65.89
2022-09-15T11:44:31.993Z,65.74
2022-09-15T11:45:31.991Z,66.73
2022-09-15T11:46:32.020Z,67.40
2022-09-15T11:47:31.954Z,67.06
2022-09-15T11:48:31.970Z,66.55
2022-09-15T11:49:31.939Z,65.11
2022-09-15T11:50:31.916Z,65.06
2022-09-15T11:51:31.914Z,63.69
2022-09-15T11:52:31.902Z,62.91
2022-09-15T11:53:31.934Z,63.86
2022-09-15T11:54:31.874Z,64.99
2022-09-15T11:55:31.875Z,65.49
2022-09-15T11:56:31.857Z,65.75
2022-09-15T11:57:31.846Z,64.31
2022-09-15T11:58:31.849Z,64.09
2022-09-15T11:59:31.845Z,65.20
2022-09-15T12:00:31.807Z,66.30
2022-09-15T12:01:31.823Z,66.07
2022-09-15T12:02:31.876Z,66.64
2022-09-15T12:03:31.782Z,67.25
2022-09-15T12:04:31.794Z,64.76
2022-09-15T12:05:31.777Z,66.25
2022-09-15T12:06:31.794Z,66.14
2022-09-15T12:07:31.802Z,66.42
2022-09-15T12:08:31.752Z,66.65
2022-09-15T12:09:31.839Z,67.14
2022-09-15T12:10:31.744Z,66.97
2022-09-15T12:11:31.749Z,65.14
2022-09-15T12:12:31.715Z,65.65
2022-09-15T12:13:31.697Z,65.69
2022-09-15T12:14:31.713Z,65.56
2022-09-15T12:15:31.786Z,65.76
2022-09-15T12:16:31.662Z,64.37
2022-09-15T12:17:31.648Z,65.73
2022-09-15T12:18:41.714Z,64.46
2022-09-15T12:19:32.725Z,64.39
2022-09-15T12:20:31.637Z,65.37
2022-09-15T12:21:31.655Z,63.40
2022-09-15T12:22:31.600Z,64.17
2022-09-15T12:23:31.639Z,64.21
2022-09-15T12:24:31.605Z,62.95
2022-09-15T12:25:31.589Z,63.66
2022-09-15T12:26:31.572Z,63.37
2022-09-15T12:27:31.573Z,62.98
2022-09-15T12:29:31.530Z,63.86
2022-09-15T12:30:31.565Z,64.04
2022-09-15T12:31:31.531Z,64.32
2022-09-15T12:32:31.498Z,62.10
2022-09-15T12:33:31.536Z,63.65
2022-09-15T12:34:31.466Z,62.42
2022-09-15T12:35:31.535Z,61.82
2022-09-15T12:36:31.438Z,60.49
2022-09-15T12:37:31.434Z,60.77
2022-09-15T12:38:31.447Z,61.31
2022-09-15T12:39:31.480Z,62.38
2022-09-15T12:40:31.484Z,62.26
2022-09-15T12:41:31.418Z,62.87
2022-09-15T12:42:31.424Z,63.39
2022-09-15T12:43:31.393Z,62.15
2022-09-15T12:44:31.365Z,63.01
2022-09-15T12:45:31.364Z,62.72
2022-09-15T12:46:31.440Z,61.34
2022-09-15T12:47:31.345Z,61.38
2022-09-15T12:48:31.314Z,60.37
2022-09-15T12:49:31.350Z,60.66
2022-09-15T12:50:31.340Z,60.66
2022-09-15T12:51:31.296Z,61.41
2022-09-15T12:52:31.254Z,62.54
2022-09-15T12:53:31.309Z,62.24